sensor_id;sensor_type;location;lat;lon;timestamp;temperature;humidity
24800;DHT22;12897;50.812;4.430;2023-02-28T00:01:21;1.30;99.90
24800;DHT22;12897;50.812;4.430;2023-02-28T00:03:50;1.20;99.90
24800;DHT22;12897;50.812;4.430;2023-02-28T00:06:18;1.30;99.90
24800;DHT22;12897;50.812;4.430;2023-02-28T00:08:46;1.40;99.90
24800;DHT22;12897;50.812;4.430;2023-02-28T00:11:15;1.40;99.90
24800;DHT22;12897;50.812;4.430;2023-02-28T00:13:44;1.40;99.90
24800;DHT22;12897;50.812;4.430;2023-02-28T00:16:22;1.40;99.90
24800;DHT22;12897;50.812;4.430;2023-02-28T00:18:50;1.40;99.90
24800;DHT22;12897;50.812;4.430;2023-02-28T00:21:19;1.40;99.90
24800;DHT22;12897;50.812;4.430;2023-02-28T00:23:47;1.30;99.90
24800;DHT22;12897;50.812;4.430;2023-02-28T00:26:14;1.30;99.90
24800;DHT22;12897;50.812;4.430;2023-02-28T00:28:42;1.30;99.90
24800;DHT22;12897;50.812;4.430;2023-02-28T00:31:09;1.40;99.90
24800;DHT22;12897;50.812;4.430;2023-02-28T00:33:37;1.60;99.90
24800;DHT22;12897;50.812;4.430;2023-02-28T00:36:10;1.60;99.90
24800;DHT22;12897;50.812;4.430;2023-02-28T00:38:38;1.60;99.90
24800;DHT22;12897;50.812;4.430;2023-02-28T00:41:07;1.70;99.90
24800;DHT22;12897;50.812;4.430;2023-02-28T00:43:38;1.50;99.90
24800;DHT22;12897;50.812;4.430;2023-02-28T00:46:06;1.40;99.90
24800;DHT22;12897;50.812;4.430;2023-02-28T00:48:35;1.40;99.90
24800;DHT22;12897;50.812;4.430;2023-02-28T00:51:03;1.30;99.90
24800;DHT22;12897;50.812;4.430;2023-02-28T00:53:30;1.20;99.90
24800;DHT22;12897;50.812;4.430;2023-02-28T00:55:59;1.20;99.90
24800;DHT22;12897;50.812;4.430;2023-02-28T00:58:27;1.10;99.90
24800;DHT22;12897;50.812;4.430;2023-02-28T01:00:54;1.30;99.90
24800;DHT22;12897;50.812;4.430;2023-02-28T01:03:22;1.40;99.90
24800;DHT22;12897;50.812;4.430;2023-02-28T01:05:50;1.50;99.90
24800;DHT22;12897;50.812;4.430;2023-02-28T01:08:19;1.40;99.90
24800;DHT22;12897;50.812;4.430;2023-02-28T01:10:47;1.40;99.90
24800;DHT22;12897;50.812;4.430;2023-02-28T01:13:15;1.40;99.90
24800;DHT22;12897;50.812;4.430;2023-02-28T01:15:50;1.40;99.90
24800;DHT22;12897;50.812;4.430;2023-02-28T01:18:19;1.40;99.90
24800;DHT22;12897;50.812;4.430;2023-02-28T01:20:47;1.50;99.90
24800;DHT22;12897;50.812;4.430;2023-02-28T01:23:15;1.40;99.90
24800;DHT22;12897;50.812;4.430;2023-02-28T01:25:42;1.50;99.90
24800;DHT22;12897;50.812;4.430;2023-02-28T01:28:10;1.40;99.90
24800;DHT22;12897;50.812;4.430;2023-02-28T01:30:37;1.30;99.90
24800;DHT22;12897;50.812;4.430;2023-02-28T01:33:05;1.20;99.90
24800;DHT22;12897;50.812;4.430;2023-02-28T01:35:35;1.30;99.90
24800;DHT22;12897;50.812;4.430;2023-02-28T01:38:03;1.30;99.90
24800;DHT22;12897;50.812;4.430;2023-02-28T01:40:30;1.30;99.90
24800;DHT22;12897;50.812;4.430;2023-02-28T01:42:58;1.40;99.90
24800;DHT22;12897;50.812;4.430;2023-02-28T01:45:30;1.50;99.90
24800;DHT22;12897;50.812;4.430;2023-02-28T01:48:07;1.50;99.90
24800;DHT22;12897;50.812;4.430;2023-02-28T01:50:38;1.50;99.90
24800;DHT22;12897;50.812;4.430;2023-02-28T01:53:10;1.40;99.90
24800;DHT22;12897;50.812;4.430;2023-02-28T01:55:47;1.30;99.90
24800;DHT22;12897;50.812;4.430;2023-02-28T01:58:14;1.30;99.90
24800;DHT22;12897;50.812;4.430;2023-02-28T02:00:42;1.30;99.90
24800;DHT22;12897;50.812;4.430;2023-02-28T02:03:15;1.40;99.90
24800;DHT22;12897;50.812;4.430;2023-02-28T02:05:45;1.30;99.90
24800;DHT22;12897;50.812;4.430;2023-02-28T02:08:18;1.30;99.90
24800;DHT22;12897;50.812;4.430;2023-02-28T02:13:31;1.20;99.90
24800;DHT22;12897;50.812;4.430;2023-02-28T02:16:04;1.20;99.90
24800;DHT22;12897;50.812;4.430;2023-02-28T02:29:39;1.30;99.90
24800;DHT22;12897;50.812;4.430;2023-02-28T02:35:27;1.10;99.90
24800;DHT22;12897;50.812;4.430;2023-02-28T02:38:03;1.20;99.90
24800;DHT22;12897;50.812;4.430;2023-02-28T02:40:49;1.20;99.90
24800;DHT22;12897;50.812;4.430;2023-02-28T02:43:48;1.10;99.90
24800;DHT22;12897;50.812;4.430;2023-02-28T02:46:45;1.10;99.90
24800;DHT22;12897;50.812;4.430;2023-02-28T02:49:19;1.00;99.90
24800;DHT22;12897;50.812;4.430;2023-02-28T02:51:43;0.90;99.90
24800;DHT22;12897;50.812;4.430;2023-02-28T02:54:32;1.00;99.90
24800;DHT22;12897;50.812;4.430;2023-02-28T02:57:03;0.90;99.90
24800;DHT22;12897;50.812;4.430;2023-02-28T02:59:30;0.80;99.90
24800;DHT22;12897;50.812;4.430;2023-02-28T03:02:06;0.90;99.90
24800;DHT22;12897;50.812;4.430;2023-02-28T03:04:38;0.80;99.90
24800;DHT22;12897;50.812;4.430;2023-02-28T03:07:04;0.70;99.90
24800;DHT22;12897;50.812;4.430;2023-02-28T03:09:37;0.80;99.90
24800;DHT22;12897;50.812;4.430;2023-02-28T03:12:09;0.90;99.90
24800;DHT22;12897;50.812;4.430;2023-02-28T03:14:40;0.80;99.90
24800;DHT22;12897;50.812;4.430;2023-02-28T03:22:57;0.90;99.90
24800;DHT22;12897;50.812;4.430;2023-02-28T03:25:41;0.90;99.90
24800;DHT22;12897;50.812;4.430;2023-02-28T03:28:31;0.90;99.90
24800;DHT22;12897;50.812;4.430;2023-02-28T03:31:06;0.90;99.90
24800;DHT22;12897;50.812;4.430;2023-02-28T03:33:35;0.90;99.90
24800;DHT22;12897;50.812;4.430;2023-02-28T03:36:08;0.70;99.90
24800;DHT22;12897;50.812;4.430;2023-02-28T03:38:45;0.60;99.90
24800;DHT22;12897;50.812;4.430;2023-02-28T03:41:49;0.60;99.90
24800;DHT22;12897;50.812;4.430;2023-02-28T03:44:32;0.50;99.90
24800;DHT22;12897;50.812;4.430;2023-02-28T03:47:08;0.50;99.90
24800;DHT22;12897;50.812;4.430;2023-02-28T03:49:42;0.50;99.90
24800;DHT22;12897;50.812;4.430;2023-02-28T03:52:11;0.50;99.90
24800;DHT22;12897;50.812;4.430;2023-02-28T03:54:41;0.50;99.90
24800;DHT22;12897;50.812;4.430;2023-02-28T03:57:32;0.50;99.90
24800;DHT22;12897;50.812;4.430;2023-02-28T04:00:04;0.40;99.90
24800;DHT22;12897;50.812;4.430;2023-02-28T04:02:32;0.50;99.90
24800;DHT22;12897;50.812;4.430;2023-02-28T04:05:00;0.50;99.90
24800;DHT22;12897;50.812;4.430;2023-02-28T04:07:31;0.60;99.90
24800;DHT22;12897;50.812;4.430;2023-02-28T04:09:59;0.50;99.90
24800;DHT22;12897;50.812;4.430;2023-02-28T04:12:26;0.60;99.90
24800;DHT22;12897;50.812;4.430;2023-02-28T04:14:54;0.50;99.90
24800;DHT22;12897;50.812;4.430;2023-02-28T04:17:22;0.40;99.90
24800;DHT22;12897;50.812;4.430;2023-02-28T04:19:49;0.30;99.90
24800;DHT22;12897;50.812;4.430;2023-02-28T04:22:16;0.30;99.90
24800;DHT22;12897;50.812;4.430;2023-02-28T04:24:44;0.30;99.90
24800;DHT22;12897;50.812;4.430;2023-02-28T04:27:12;0.40;99.90
24800;DHT22;12897;50.812;4.430;2023-02-28T04:29:41;0.40;99.90
24800;DHT22;12897;50.812;4.430;2023-02-28T04:32:10;0.30;99.90
24800;DHT22;12897;50.812;4.430;2023-02-28T04:34:38;0.30;99.90
24800;DHT22;12897;50.812;4.430;2023-02-28T04:37:06;0.40;99.90
24800;DHT22;12897;50.812;4.430;2023-02-28T04:39:36;0.40;99.90
24800;DHT22;12897;50.812;4.430;2023-02-28T04:42:03;0.40;99.90
24800;DHT22;12897;50.812;4.430;2023-02-28T04:44:30;0.50;99.90
24800;DHT22;12897;50.812;4.430;2023-02-28T04:47:17;0.40;99.90
24800;DHT22;12897;50.812;4.430;2023-02-28T04:49:45;0.50;99.90
24800;DHT22;12897;50.812;4.430;2023-02-28T04:52:12;0.40;99.90
24800;DHT22;12897;50.812;4.430;2023-02-28T04:54:40;0.40;99.90
24800;DHT22;12897;50.812;4.430;2023-02-28T04:57:07;0.40;99.90
24800;DHT22;12897;50.812;4.430;2023-02-28T04:59:35;0.50;99.90
24800;DHT22;12897;50.812;4.430;2023-02-28T05:02:04;0.50;99.90
24800;DHT22;12897;50.812;4.430;2023-02-28T05:04:34;0.50;99.90
24800;DHT22;12897;50.812;4.430;2023-02-28T05:07:02;0.50;99.90
24800;DHT22;12897;50.812;4.430;2023-02-28T05:09:30;0.50;99.90
24800;DHT22;12897;50.812;4.430;2023-02-28T05:11:59;0.50;99.90
24800;DHT22;12897;50.812;4.430;2023-02-28T05:14:26;0.50;99.90
24800;DHT22;12897;50.812;4.430;2023-02-28T05:16:54;0.60;99.90
24800;DHT22;12897;50.812;4.430;2023-02-28T05:19:22;0.60;99.90
24800;DHT22;12897;50.812;4.430;2023-02-28T05:21:54;0.80;99.90
24800;DHT22;12897;50.812;4.430;2023-02-28T05:24:22;0.80;99.90
24800;DHT22;12897;50.812;4.430;2023-02-28T05:26:51;0.80;99.90
24800;DHT22;12897;50.812;4.430;2023-02-28T05:29:19;0.70;99.90
24800;DHT22;12897;50.812;4.430;2023-02-28T05:31:47;0.80;99.90
24800;DHT22;12897;50.812;4.430;2023-02-28T05:34:14;0.80;99.90
24800;DHT22;12897;50.812;4.430;2023-02-28T05:36:43;0.90;99.90
24800;DHT22;12897;50.812;4.430;2023-02-28T05:39:11;1.00;99.90
24800;DHT22;12897;50.812;4.430;2023-02-28T05:41:42;0.90;99.90
24800;DHT22;12897;50.812;4.430;2023-02-28T05:44:10;1.00;99.90
24800;DHT22;12897;50.812;4.430;2023-02-28T05:46:38;1.10;99.90
24800;DHT22;12897;50.812;4.430;2023-02-28T05:49:06;1.10;99.90
24800;DHT22;12897;50.812;4.430;2023-02-28T05:51:33;1.20;99.90
24800;DHT22;12897;50.812;4.430;2023-02-28T05:54:03;1.30;99.90
24800;DHT22;12897;50.812;4.430;2023-02-28T05:56:37;1.30;99.90
24800;DHT22;12897;50.812;4.430;2023-02-28T05:59:07;1.50;99.90
24800;DHT22;12897;50.812;4.430;2023-02-28T06:04:08;1.30;99.90
24800;DHT22;12897;50.812;4.430;2023-02-28T06:06:37;1.40;99.90
24800;DHT22;12897;50.812;4.430;2023-02-28T06:09:05;1.40;99.90
24800;DHT22;12897;50.812;4.430;2023-02-28T06:11:33;1.30;99.90
24800;DHT22;12897;50.812;4.430;2023-02-28T06:14:02;1.30;99.90
24800;DHT22;12897;50.812;4.430;2023-02-28T06:16:31;1.30;99.90
24800;DHT22;12897;50.812;4.430;2023-02-28T06:19:01;1.50;99.90
24800;DHT22;12897;50.812;4.430;2023-02-28T06:21:31;1.50;99.90
24800;DHT22;12897;50.812;4.430;2023-02-28T06:24:00;1.50;99.90
24800;DHT22;12897;50.812;4.430;2023-02-28T06:26:29;1.50;99.90
24800;DHT22;12897;50.812;4.430;2023-02-28T06:28:57;1.60;99.90
24800;DHT22;12897;50.812;4.430;2023-02-28T06:31:24;1.80;99.90
24800;DHT22;12897;50.812;4.430;2023-02-28T06:33:52;1.90;99.90
24800;DHT22;12897;50.812;4.430;2023-02-28T06:36:20;1.80;99.90
24800;DHT22;12897;50.812;4.430;2023-02-28T06:38:49;1.90;99.90
24800;DHT22;12897;50.812;4.430;2023-02-28T06:41:19;2.00;99.90
24800;DHT22;12897;50.812;4.430;2023-02-28T06:43:47;2.00;99.90
24800;DHT22;12897;50.812;4.430;2023-02-28T06:46:14;1.90;99.90
24800;DHT22;12897;50.812;4.430;2023-02-28T06:48:45;1.90;99.90
24800;DHT22;12897;50.812;4.430;2023-02-28T06:51:19;2.00;99.90
24800;DHT22;12897;50.812;4.430;2023-02-28T06:53:51;1.80;99.90
24800;DHT22;12897;50.812;4.430;2023-02-28T06:56:20;1.60;99.90
24800;DHT22;12897;50.812;4.430;2023-02-28T06:58:48;1.60;99.90
24800;DHT22;12897;50.812;4.430;2023-02-28T07:01:19;1.50;99.90
24800;DHT22;12897;50.812;4.430;2023-02-28T07:03:48;1.50;99.90
24800;DHT22;12897;50.812;4.430;2023-02-28T07:06:18;1.60;99.90
24800;DHT22;12897;50.812;4.430;2023-02-28T07:08:45;1.60;99.90
24800;DHT22;12897;50.812;4.430;2023-02-28T07:11:15;1.70;99.90
24800;DHT22;12897;50.812;4.430;2023-02-28T07:13:42;1.70;99.90
24800;DHT22;12897;50.812;4.430;2023-02-28T07:16:11;1.90;99.90
24800;DHT22;12897;50.812;4.430;2023-02-28T07:18:39;2.00;99.90
24800;DHT22;12897;50.812;4.430;2023-02-28T07:21:08;2.00;99.90
24800;DHT22;12897;50.812;4.430;2023-02-28T07:23:37;2.00;99.90
24800;DHT22;12897;50.812;4.430;2023-02-28T07:26:09;2.00;99.90
24800;DHT22;12897;50.812;4.430;2023-02-28T07:37:38;2.50;99.90
24800;DHT22;12897;50.812;4.430;2023-02-28T07:40:09;2.40;99.90
24800;DHT22;12897;50.812;4.430;2023-02-28T07:42:41;2.50;99.90
24800;DHT22;12897;50.812;4.430;2023-02-28T07:45:10;2.50;99.90
24800;DHT22;12897;50.812;4.430;2023-02-28T07:47:39;2.50;99.90
24800;DHT22;12897;50.812;4.430;2023-02-28T07:50:08;2.50;99.90
24800;DHT22;12897;50.812;4.430;2023-02-28T07:52:42;2.40;99.90
24800;DHT22;12897;50.812;4.430;2023-02-28T07:55:10;2.40;99.90
24800;DHT22;12897;50.812;4.430;2023-02-28T07:57:38;2.40;99.90
24800;DHT22;12897;50.812;4.430;2023-02-28T08:00:08;2.40;99.90
24800;DHT22;12897;50.812;4.430;2023-02-28T08:02:38;2.40;99.90
24800;DHT22;12897;50.812;4.430;2023-02-28T08:05:10;2.40;99.90
24800;DHT22;12897;50.812;4.430;2023-02-28T08:07:42;2.30;99.90
24800;DHT22;12897;50.812;4.430;2023-02-28T08:10:07;2.30;99.90
24800;DHT22;12897;50.812;4.430;2023-02-28T08:12:36;2.40;99.90
24800;DHT22;12897;50.812;4.430;2023-02-28T08:15:04;2.40;99.90
24800;DHT22;12897;50.812;4.430;2023-02-28T08:17:32;2.30;99.90
24800;DHT22;12897;50.812;4.430;2023-02-28T08:20:04;2.40;99.90
24800;DHT22;12897;50.812;4.430;2023-02-28T08:22:33;2.50;99.90
24800;DHT22;12897;50.812;4.430;2023-02-28T08:25:03;2.50;99.90
24800;DHT22;12897;50.812;4.430;2023-02-28T08:27:37;2.60;99.90
24800;DHT22;12897;50.812;4.430;2023-02-28T08:30:05;2.60;99.90
24800;DHT22;12897;50.812;4.430;2023-02-28T08:32:35;2.60;99.90
24800;DHT22;12897;50.812;4.430;2023-02-28T08:35:09;2.70;99.90
24800;DHT22;12897;50.812;4.430;2023-02-28T08:37:36;2.60;99.90
24800;DHT22;12897;50.812;4.430;2023-02-28T08:40:05;2.60;99.90
24800;DHT22;12897;50.812;4.430;2023-02-28T08:42:34;2.60;99.90
24800;DHT22;12897;50.812;4.430;2023-02-28T08:45:16;2.60;99.90
24800;DHT22;12897;50.812;4.430;2023-02-28T08:50:43;2.60;99.90
24800;DHT22;12897;50.812;4.430;2023-02-28T08:53:15;2.60;99.90
24800;DHT22;12897;50.812;4.430;2023-02-28T08:55:42;2.80;99.90
24800;DHT22;12897;50.812;4.430;2023-02-28T08:58:27;2.80;99.90
24800;DHT22;12897;50.812;4.430;2023-02-28T09:00:55;2.60;99.90
24800;DHT22;12897;50.812;4.430;2023-02-28T09:03:26;2.60;99.90
24800;DHT22;12897;50.812;4.430;2023-02-28T09:05:58;2.70;99.90
24800;DHT22;12897;50.812;4.430;2023-02-28T09:11:10;2.80;99.90
24800;DHT22;12897;50.812;4.430;2023-02-28T09:13:53;2.80;99.90
24800;DHT22;12897;50.812;4.430;2023-02-28T09:16:14;3.00;99.90
24800;DHT22;12897;50.812;4.430;2023-02-28T09:18:47;3.00;99.90
24800;DHT22;12897;50.812;4.430;2023-02-28T09:21:18;3.00;99.90
24800;DHT22;12897;50.812;4.430;2023-02-28T09:23:48;3.00;99.90
24800;DHT22;12897;50.812;4.430;2023-02-28T09:26:23;3.10;99.90
24800;DHT22;12897;50.812;4.430;2023-02-28T09:28:54;3.10;99.90
24800;DHT22;12897;50.812;4.430;2023-02-28T09:31:24;3.10;99.90
24800;DHT22;12897;50.812;4.430;2023-02-28T09:33:55;3.00;99.90
24800;DHT22;12897;50.812;4.430;2023-02-28T09:36:24;3.00;99.90
24800;DHT22;12897;50.812;4.430;2023-02-28T09:38:52;3.00;99.90
24800;DHT22;12897;50.812;4.430;2023-02-28T09:41:23;3.10;99.90
24800;DHT22;12897;50.812;4.430;2023-02-28T09:43:54;3.20;99.90
24800;DHT22;12897;50.812;4.430;2023-02-28T09:49:14;3.30;99.90
24800;DHT22;12897;50.812;4.430;2023-02-28T09:54:32;3.50;99.90
24800;DHT22;12897;50.812;4.430;2023-02-28T09:57:10;3.40;99.90
24800;DHT22;12897;50.812;4.430;2023-02-28T10:05:22;3.50;99.90
24800;DHT22;12897;50.812;4.430;2023-02-28T10:08:06;3.40;99.90
24800;DHT22;12897;50.812;4.430;2023-02-28T10:10:43;3.30;99.90
24800;DHT22;12897;50.812;4.430;2023-02-28T10:13:23;3.40;99.90
24800;DHT22;12897;50.812;4.430;2023-02-28T10:15:54;3.40;99.90
24800;DHT22;12897;50.812;4.430;2023-02-28T10:18:24;3.50;99.90
24800;DHT22;12897;50.812;4.430;2023-02-28T10:20:53;3.60;99.90
24800;DHT22;12897;50.812;4.430;2023-02-28T10:23:34;3.70;99.90
24800;DHT22;12897;50.812;4.430;2023-02-28T10:26:08;3.60;99.90
24800;DHT22;12897;50.812;4.430;2023-02-28T10:28:34;3.60;99.90
24800;DHT22;12897;50.812;4.430;2023-02-28T10:31:02;3.70;99.90
24800;DHT22;12897;50.812;4.430;2023-02-28T10:33:32;3.80;99.90
24800;DHT22;12897;50.812;4.430;2023-02-28T10:36:04;3.90;99.90
24800;DHT22;12897;50.812;4.430;2023-02-28T10:38:36;3.90;99.90
24800;DHT22;12897;50.812;4.430;2023-02-28T10:41:08;3.80;99.90
24800;DHT22;12897;50.812;4.430;2023-02-28T10:43:37;3.80;99.90
24800;DHT22;12897;50.812;4.430;2023-02-28T10:48:50;3.90;99.90
24800;DHT22;12897;50.812;4.430;2023-02-28T10:51:19;3.80;99.90
24800;DHT22;12897;50.812;4.430;2023-02-28T10:56:22;3.60;99.90
24800;DHT22;12897;50.812;4.430;2023-02-28T10:59:23;3.70;99.90
24800;DHT22;12897;50.812;4.430;2023-02-28T11:01:52;3.80;99.90
24800;DHT22;12897;50.812;4.430;2023-02-28T11:06:58;4.10;99.90
24800;DHT22;12897;50.812;4.430;2023-02-28T11:09:37;4.20;99.90
24800;DHT22;12897;50.812;4.430;2023-02-28T11:12:19;4.20;99.90
24800;DHT22;12897;50.812;4.430;2023-02-28T11:14:40;4.30;99.90
24800;DHT22;12897;50.812;4.430;2023-02-28T11:17:28;4.30;99.90
24800;DHT22;12897;50.812;4.430;2023-02-28T11:20:00;4.40;99.90
24800;DHT22;12897;50.812;4.430;2023-02-28T11:22:31;4.50;99.90
24800;DHT22;12897;50.812;4.430;2023-02-28T11:27:53;4.40;99.90
24800;DHT22;12897;50.812;4.430;2023-02-28T11:30:36;4.30;99.90
24800;DHT22;12897;50.812;4.430;2023-02-28T11:36:14;4.30;99.90
24800;DHT22;12897;50.812;4.430;2023-02-28T11:38:42;4.20;99.90
24800;DHT22;12897;50.812;4.430;2023-02-28T11:41:24;4.20;99.90
24800;DHT22;12897;50.812;4.430;2023-02-28T11:44:16;4.40;99.90
24800;DHT22;12897;50.812;4.430;2023-02-28T11:46:49;4.50;99.90
24800;DHT22;12897;50.812;4.430;2023-02-28T11:49:37;4.50;99.90
24800;DHT22;12897;50.812;4.430;2023-02-28T11:52:28;4.60;99.90
24800;DHT22;12897;50.812;4.430;2023-02-28T11:57:31;4.80;99.90
24800;DHT22;12897;50.812;4.430;2023-02-28T12:03:01;4.50;99.90
24800;DHT22;12897;50.812;4.430;2023-02-28T12:05:38;4.50;99.90
24800;DHT22;12897;50.812;4.430;2023-02-28T12:13:37;4.80;98.30
24800;DHT22;12897;50.812;4.430;2023-02-28T12:21:34;4.90;96.20
24800;DHT22;12897;50.812;4.430;2023-02-28T12:26:58;5.20;96.00
24800;DHT22;12897;50.812;4.430;2023-02-28T12:29:33;4.90;95.30
24800;DHT22;12897;50.812;4.430;2023-02-28T12:32:25;4.80;95.90
24800;DHT22;12897;50.812;4.430;2023-02-28T12:34:59;4.90;95.50
24800;DHT22;12897;50.812;4.430;2023-02-28T12:37:58;4.80;94.90
24800;DHT22;12897;50.812;4.430;2023-02-28T12:40:33;5.00;94.80
24800;DHT22;12897;50.812;4.430;2023-02-28T12:43:04;5.10;94.20
24800;DHT22;12897;50.812;4.430;2023-02-28T12:45:54;5.00;93.80
24800;DHT22;12897;50.812;4.430;2023-02-28T12:48:24;5.00;93.90
24800;DHT22;12897;50.812;4.430;2023-02-28T12:50:59;4.90;94.50
24800;DHT22;12897;50.812;4.430;2023-02-28T12:53:52;4.90;94.50
24800;DHT22;12897;50.812;4.430;2023-02-28T12:56:37;5.00;94.20
24800;DHT22;12897;50.812;4.430;2023-02-28T12:59:13;5.00;94.00
24800;DHT22;12897;50.812;4.430;2023-02-28T13:04:53;5.10;94.10
24800;DHT22;12897;50.812;4.430;2023-02-28T13:10:16;5.20;93.00
24800;DHT22;12897;50.812;4.430;2023-02-28T13:12:49;5.20;93.10
24800;DHT22;12897;50.812;4.430;2023-02-28T13:15:23;5.20;93.00
24800;DHT22;12897;50.812;4.430;2023-02-28T13:17:55;5.10;92.00
24800;DHT22;12897;50.812;4.430;2023-02-28T13:20:47;4.90;92.10
24800;DHT22;12897;50.812;4.430;2023-02-28T13:23:03;4.90;92.60
24800;DHT22;12897;50.812;4.430;2023-02-28T13:28:11;5.30;91.30
24800;DHT22;12897;50.812;4.430;2023-02-28T13:33:30;5.10;91.40
24800;DHT22;12897;50.812;4.430;2023-02-28T13:38:55;5.10;91.70
24800;DHT22;12897;50.812;4.430;2023-02-28T13:44:22;5.40;91.20
24800;DHT22;12897;50.812;4.430;2023-02-28T13:49:33;5.40;90.30
24800;DHT22;12897;50.812;4.430;2023-02-28T13:54:55;5.30;89.30
24800;DHT22;12897;50.812;4.430;2023-02-28T13:57:50;5.30;89.70
24800;DHT22;12897;50.812;4.430;2023-02-28T14:00:35;5.40;90.10
24800;DHT22;12897;50.812;4.430;2023-02-28T14:05:42;5.40;89.20
24800;DHT22;12897;50.812;4.430;2023-02-28T14:08:16;5.40;89.80
24800;DHT22;12897;50.812;4.430;2023-02-28T14:11:03;5.40;90.00
24800;DHT22;12897;50.812;4.430;2023-02-28T14:16:22;5.60;88.70
24800;DHT22;12897;50.812;4.430;2023-02-28T14:21:33;5.40;90.00
24800;DHT22;12897;50.812;4.430;2023-02-28T14:30:15;5.80;90.00
24800;DHT22;12897;50.812;4.430;2023-02-28T14:37:56;5.40;89.80
24800;DHT22;12897;50.812;4.430;2023-02-28T14:43:01;5.50;90.20
24800;DHT22;12897;50.812;4.430;2023-02-28T14:45:31;5.50;89.00
24800;DHT22;12897;50.812;4.430;2023-02-28T14:48:00;5.50;90.20
24800;DHT22;12897;50.812;4.430;2023-02-28T14:50:36;5.70;89.60
24800;DHT22;12897;50.812;4.430;2023-02-28T14:53:03;5.60;88.90
24800;DHT22;12897;50.812;4.430;2023-02-28T14:55:34;5.60;89.40
24800;DHT22;12897;50.812;4.430;2023-02-28T14:58:06;5.70;87.50
24800;DHT22;12897;50.812;4.430;2023-02-28T15:00:52;5.70;88.00
24800;DHT22;12897;50.812;4.430;2023-02-28T15:03:24;5.70;88.10
24800;DHT22;12897;50.812;4.430;2023-02-28T15:05:59;5.50;89.20
24800;DHT22;12897;50.812;4.430;2023-02-28T15:08:24;5.40;89.60
24800;DHT22;12897;50.812;4.430;2023-02-28T15:11:18;5.50;89.30
24800;DHT22;12897;50.812;4.430;2023-02-28T15:13:51;5.60;89.30
24800;DHT22;12897;50.812;4.430;2023-02-28T15:16:24;5.60;89.10
24800;DHT22;12897;50.812;4.430;2023-02-28T15:19:02;5.60;89.30
24800;DHT22;12897;50.812;4.430;2023-02-28T15:21:37;5.70;89.80
24800;DHT22;12897;50.812;4.430;2023-02-28T15:24:08;5.70;90.10
24800;DHT22;12897;50.812;4.430;2023-02-28T15:26:41;5.70;89.20
24800;DHT22;12897;50.812;4.430;2023-02-28T15:29:28;5.60;90.00
24800;DHT22;12897;50.812;4.430;2023-02-28T15:32:01;5.70;90.20
24800;DHT22;12897;50.812;4.430;2023-02-28T15:34:38;5.80;89.00
24800;DHT22;12897;50.812;4.430;2023-02-28T15:37:25;5.80;88.90
24800;DHT22;12897;50.812;4.430;2023-02-28T15:40:04;5.80;89.50
24800;DHT22;12897;50.812;4.430;2023-02-28T15:42:30;6.00;90.10
24800;DHT22;12897;50.812;4.430;2023-02-28T15:44:59;6.10;89.50
24800;DHT22;12897;50.812;4.430;2023-02-28T15:47:31;6.10;89.90
24800;DHT22;12897;50.812;4.430;2023-02-28T15:50:20;6.10;90.20
24800;DHT22;12897;50.812;4.430;2023-02-28T15:53:01;6.00;90.00
24800;DHT22;12897;50.812;4.430;2023-02-28T15:55:31;6.00;90.20
24800;DHT22;12897;50.812;4.430;2023-02-28T15:58:01;5.90;90.10
24800;DHT22;12897;50.812;4.430;2023-02-28T16:00:33;6.00;89.80
24800;DHT22;12897;50.812;4.430;2023-02-28T16:08:58;5.80;90.00
24800;DHT22;12897;50.812;4.430;2023-02-28T16:11:33;5.80;90.20
24800;DHT22;12897;50.812;4.430;2023-02-28T16:14:25;5.50;90.60
24800;DHT22;12897;50.812;4.430;2023-02-28T16:16:58;5.40;90.90
24800;DHT22;12897;50.812;4.430;2023-02-28T16:19:33;5.50;91.00
24800;DHT22;12897;50.812;4.430;2023-02-28T16:22:07;5.50;91.20
24800;DHT22;12897;50.812;4.430;2023-02-28T16:24:43;5.50;91.60
24800;DHT22;12897;50.812;4.430;2023-02-28T16:27:21;5.50;92.10
24800;DHT22;12897;50.812;4.430;2023-02-28T16:29:56;5.40;92.50
24800;DHT22;12897;50.812;4.430;2023-02-28T16:32:23;5.30;92.80
24800;DHT22;12897;50.812;4.430;2023-02-28T16:34:50;5.30;92.90
24800;DHT22;12897;50.812;4.430;2023-02-28T16:37:18;5.20;93.30
24800;DHT22;12897;50.812;4.430;2023-02-28T16:39:47;5.30;93.80
24800;DHT22;12897;50.812;4.430;2023-02-28T16:42:27;5.20;93.80
24800;DHT22;12897;50.812;4.430;2023-02-28T16:44:54;5.20;94.00
24800;DHT22;12897;50.812;4.430;2023-02-28T16:47:22;5.10;93.80
24800;DHT22;12897;50.812;4.430;2023-02-28T16:49:50;5.20;93.80
24800;DHT22;12897;50.812;4.430;2023-02-28T16:52:17;5.10;94.00
24800;DHT22;12897;50.812;4.430;2023-02-28T16:54:45;5.00;94.40
24800;DHT22;12897;50.812;4.430;2023-02-28T16:57:19;5.00;94.60
24800;DHT22;12897;50.812;4.430;2023-02-28T16:59:48;5.00;94.90
24800;DHT22;12897;50.812;4.430;2023-02-28T17:02:18;5.00;95.30
24800;DHT22;12897;50.812;4.430;2023-02-28T17:04:46;5.00;95.40
24800;DHT22;12897;50.812;4.430;2023-02-28T17:07:15;4.90;95.80
24800;DHT22;12897;50.812;4.430;2023-02-28T17:09:44;4.80;96.00
24800;DHT22;12897;50.812;4.430;2023-02-28T17:12:12;4.80;95.90
24800;DHT22;12897;50.812;4.430;2023-02-28T17:14:40;4.70;96.10
24800;DHT22;12897;50.812;4.430;2023-02-28T17:17:13;4.80;96.00
24800;DHT22;12897;50.812;4.430;2023-02-28T17:19:39;4.90;96.10
24800;DHT22;12897;50.812;4.430;2023-02-28T17:22:08;4.80;96.10
24800;DHT22;12897;50.812;4.430;2023-02-28T17:24:36;4.60;96.70
24800;DHT22;12897;50.812;4.430;2023-02-28T17:27:04;4.60;96.70
24800;DHT22;12897;50.812;4.430;2023-02-28T17:29:34;4.60;96.90
24800;DHT22;12897;50.812;4.430;2023-02-28T17:32:02;4.60;97.10
24800;DHT22;12897;50.812;4.430;2023-02-28T17:34:29;4.50;97.10
24800;DHT22;12897;50.812;4.430;2023-02-28T17:36:57;4.40;97.40
24800;DHT22;12897;50.812;4.430;2023-02-28T17:39:24;4.50;97.30
24800;DHT22;12897;50.812;4.430;2023-02-28T17:41:56;4.40;97.40
24800;DHT22;12897;50.812;4.430;2023-02-28T17:44:24;4.40;97.70
24800;DHT22;12897;50.812;4.430;2023-02-28T17:46:54;4.40;97.80
24800;DHT22;12897;50.812;4.430;2023-02-28T17:49:22;4.40;98.00
24800;DHT22;12897;50.812;4.430;2023-02-28T17:51:50;4.50;97.90
24800;DHT22;12897;50.812;4.430;2023-02-28T17:54:23;4.40;98.10
24800;DHT22;12897;50.812;4.430;2023-02-28T17:56:51;4.40;98.40
24800;DHT22;12897;50.812;4.430;2023-02-28T17:59:18;4.30;98.90
24800;DHT22;12897;50.812;4.430;2023-02-28T18:01:46;4.20;99.20
24800;DHT22;12897;50.812;4.430;2023-02-28T18:04:13;4.20;99.40
24800;DHT22;12897;50.812;4.430;2023-02-28T18:06:43;4.20;99.70
24800;DHT22;12897;50.812;4.430;2023-02-28T18:09:22;4.20;99.90
24800;DHT22;12897;50.812;4.430;2023-02-28T18:12:07;4.20;99.90
24800;DHT22;12897;50.812;4.430;2023-02-28T18:14:35;4.20;99.90
24800;DHT22;12897;50.812;4.430;2023-02-28T18:17:03;4.20;99.90
24800;DHT22;12897;50.812;4.430;2023-02-28T18:19:30;4.10;99.90
24800;DHT22;12897;50.812;4.430;2023-02-28T18:21:58;4.10;99.90
24800;DHT22;12897;50.812;4.430;2023-02-28T18:24:26;4.10;99.90
24800;DHT22;12897;50.812;4.430;2023-02-28T18:26:53;4.10;99.90
24800;DHT22;12897;50.812;4.430;2023-02-28T18:29:24;4.10;99.90